Weather reports worldwide

Advertisment
Fichtelberg, Germany (10578): temperature & dewpoint: 17.10.2019 05:00:00 - 23.10.2019 05:00:00 (CEST)Fichtelberg, Germany (10578): temperature 5cm & temperature -5cm: 17.10.2019 05:00:00 - 23.10.2019 05:00:00 (CEST)Fichtelberg, Germany (10578): temperature -20cm & temperature -100cm: 17.10.2019 05:00:00 - 23.10.2019 05:00:00 (CEST)Fichtelberg, Germany (10578): wind speed & gusts: 17.10.2019 05:00:00 - 23.10.2019 05:00:00 (CEST)Fichtelberg, Germany (10578): wind direction: 17.10.2019 05:00:00 - 23.10.2019 05:00:00 (CEST)Fichtelberg, Germany (10578): visibility: 17.10.2019 05:00:00 - 23.10.2019 05:00:00 (CEST)Fichtelberg, Germany (10578): sunshine duration: 17.10.2019 05:00:00 - 23.10.2019 05:00:00 (CEST)
Date & Time tt [°C] td [°C] tt 5cm [°C] tt -5cm [°C] tt -20cm [°C] tt -100cm [°C] ff [km/h] ff [kn] fx [km/h] fx [kn] dd vv [km] sd [min]
23.10.2019 05:00:00 8,4 8,0 8,5 9,2 9,7 9,3 33 18 38 20 ESE 0,1 0
23.10.2019 04:00:00 8,5 8,1 8,6 9,3 9,7 9,3 32 17 36 20 SE 0,1 0
23.10.2019 03:00:00 8,6 8,2 8,7 9,4 9,7 9,3 26 14 33 18 ESE 0,1 0
23.10.2019 02:00:00 9,6 9,2 9,6 9,5 9,8 9,3 27 15 37 20 ESE 0,1 0
23.10.2019 01:00:00 9,6 9,2 9,6 9,5 9,8 9,3 29 16 35 19 ESE 0,1 0
23.10.2019 00:00:00 9,5 9,1 9,5 9,3 9,9 9,3 22 12 29 16 E 0,1 0
22.10.2019 23:00:00 9,3 8,9 9,3 9,1 10,0 9,3 26 14 29 16 ESE 0,1 0
22.10.2019 22:00:00 9,4 9,0 8,5 9,0 10,1 9,3 23 12 24 13 E 0,1 0
22.10.2019 21:00:00 9,2 8,2 7,9 9,4 10,2 9,3 21 11 24 13 ESE 16 0
22.10.2019 20:00:00 9,5 8,3 8,2 9,9 10,2 9,3 16 9 19 11 ESE 12 0
22.10.2019 19:00:00 9,5 8,4 8,3 10,5 10,2 9,3 14 8 15 8 E 15 0
22.10.2019 18:00:00 10,2 8,5 8,7 11,4 10,1 9,3 12 6 16 9 E 40 0
22.10.2019 17:00:00 11,1 7,2 10,8 12,2 9,9 9,3 10 5 14 7 ENE 66 0
22.10.2019 16:00:00 11,6 8,2 12,2 12,7 9,7 9,3 9 5 16 9 NE 46 0
22.10.2019 15:00:00 12,0 8,5 12,4 13,3 9,4 9,3 12 7 18 10 NNW 55 19
22.10.2019 14:00:00 13,1 9,1 15,1 14,0 9,2 9,3 16 8 20 11 NNW 41 60
22.10.2019 13:00:00 13,7 9,1 16,7 13,1 9,0 9,3 6 3 13 7 ENE 48 60
22.10.2019 12:00:00 13,2 8,5 16,4 10,9 8,9 9,3 6 3 14 8 E 51 46
22.10.2019 11:00:00 12,0 7,6 12,2 9,5 8,9 9,3 9 5 23 13 E 74 60
22.10.2019 10:00:00 10,2 8,0 9,5 8,3 8,9 9,3 22 12 27 15 ESE 36 49
22.10.2019 09:00:00 8,9 8,5 8,6 8,0 9,0 9,3 18 10 22 12 E 20 30
22.10.2019 08:00:00 8,3 7,9 7,5 7,8 9,0 9,3 16 9 18 10 NE 0,2 0
22.10.2019 07:00:00 8,3 7,9 7,9 8,0 9,1 9,3 14 8 21 11 NE 0,1 0
22.10.2019 06:00:00 8,7 8,3 8,5 7,7 9,2 9,3 18 10 22 12 NNE 0,1 0
22.10.2019 05:00:00 9,5 7,5 7,9 7,7 9,3 9,3 16 9 18 10 NNE 31 0
22.10.2019 04:00:00 10,9 4,9 8,8 7,8 9,3 9,3 13 7 21 11 NNE 75 0
22.10.2019 03:00:00 11,4 5,2 9,4 7,9 9,5 9,3 19 10 22 12 ENE 75 0
22.10.2019 02:00:00 11,4 5,7 9,2 8,0 9,6 9,3 18 10 22 12 ENE 75 0
22.10.2019 01:00:00 11,6 4,4 9,4 8,2 9,7 9,3 18 10 25 13 NE 75 0
22.10.2019 00:00:00 11,4 4,6 9,4 8,4 9,8 9,3 14 8 24 13 NE 75 0
21.10.2019 23:00:00 11,4 4,5 9,2 8,6 9,9 9,3 20 11 23 12 ENE 71 0
21.10.2019 22:00:00 11,0 5,4 7,9 9,1 10,0 9,3 17 9 21 12 ENE 75 0
21.10.2019 21:00:00 11,7 5,5 9,6 9,4 10,1 9,3 19 11 23 12 ENE 75 0
21.10.2019 20:00:00 11,5 5,9 9,5 10,0 10,1 9,3 21 11 26 14 ENE 75 0
21.10.2019 19:00:00 11,4 6,5 8,9 10,7 10,1 9,3 18 10 23 12 ENE 75 0
21.10.2019 18:00:00 12,0 6,6 11,0 11,6 10,0 9,3 21 11 25 13 ENE 75 8
21.10.2019 17:00:00 12,2 7,1 12,3 12,4 9,8 9,3 17 9 23 13 NNE 75 0
21.10.2019 16:00:00 12,3 8,4 12,6 13,1 9,6 9,3 17 9 27 14 N 57 21
21.10.2019 15:00:00 12,7 8,7 13,3 13,2 9,3 9,3 14 8 19 11 NNE 56 7
21.10.2019 14:00:00 13,8 8,1 15,0 13,5 9,0 9,3 13 7 19 10 N 49 29
21.10.2019 13:00:00 15,6 9,2 16,0 12,7 8,8 9,3 8 4 11 6 W 75 33
21.10.2019 12:00:00 15,4 8,1 15,3 12,1 8,6 9,3 7 4 17 9 WSW 75 51
21.10.2019 11:00:00 16,0 7,9 16,7 10,5 8,6 9,3 10 6 22 12 W 57 59
21.10.2019 10:00:00 16,8 5,8 15,7 8,6 8,6 9,3 16 9 22 12 SW 59 43
21.10.2019 09:00:00 15,4 5,4 12,2 7,7 8,6 9,3 8 4 15 8 SW 75 41
21.10.2019 08:00:00 13,3 5,2 10,7 7,7 8,7 9,3 17 9 25 13 SW 75 0
21.10.2019 07:00:00 13,2 5,0 10,7 7,8 8,7 9,3 22 12 31 17 SW 75 0
21.10.2019 06:00:00 13,7 4,9 11,2 7,9 8,8 9,3 29 16 38 20 WSW 75 0
21.10.2019 05:00:00 13,6 4,5 11,4 8,0 8,8 9,3 33 18 47 26 SW 75 0
21.10.2019 04:00:00 13,5 4,1 11,3 8,1 8,9 9,3 42 23 51 28 SSW 75 0
21.10.2019 03:00:00 13,8 3,7 11,4 8,1 8,9 9,3 30 16 44 24 S 75 0
21.10.2019 02:00:00 14,0 3,9 11,9 8,2 9,0 9,3 41 22 48 26 SSW 75 0
21.10.2019 01:00:00 13,4 4,4 11,3 8,2 9,1 9,3 41 22 50 27 SSW 75 0
21.10.2019 00:00:00 13,3 4,7 11,0 8,2 9,2 9,3 33 18 40 21 S 75 0
20.10.2019 23:00:00 12,4 5,6 10,2 8,3 9,2 9,3 27 15 39 21 S 74 0
20.10.2019 22:00:00 11,4 5,9 9,2 8,6 9,3 9,3 25 14 38 21 S 63 0
20.10.2019 21:00:00 10,6 6,4 8,7 9,0 9,4 9,3 22 12 50 27 SSE 65 0
20.10.2019 20:00:00 13,0 5,0 11,0 9,3 9,4 9,3 36 19 51 28 S 75 0
20.10.2019 19:00:00 12,6 5,1 10,7 10,0 9,3 9,3 42 23 58 31 S 75 6
20.10.2019 18:00:00 13,7 4,3 11,9 11,0 9,2 9,3 40 22 54 29 S 75 21
20.10.2019 17:00:00 14,3 4,3 14,0 12,2 8,9 9,3 35 19 45 25 S 75 48
20.10.2019 16:00:00 14,5 4,7 14,6 13,1 8,6 9,3 29 16 40 22 S 75 59
20.10.2019 15:00:00 15,3 5,9 17,3 13,2 8,3 9,3 25 14 37 20 S 59 60
20.10.2019 14:00:00 14,7 5,0 15,5 12,2 8,1 9,3 28 15 45 24 S 48 60
20.10.2019 13:00:00 14,6 5,2 16,4 11,5 7,9 9,3 29 16 44 24 SSE 64 60
20.10.2019 12:00:00 13,5 6,3 14,4 9,8 7,8 9,3 24 13 31 17 S 72 37
20.10.2019 11:00:00 13,0 6,7 13,8 8,6 7,7 9,3 18 10 23 12 SE 50 60
20.10.2019 10:00:00 13,3 6,6 12,0 7,1 7,8 9,3 11 6 21 11 SSE 63 60
20.10.2019 09:00:00 12,9 4,8 10,1 6,5 7,8 9,3 18 10 27 15 S 66 52
20.10.2019 08:00:00 11,2 4,4 8,4 6,5 7,8 9,3 19 10 29 16 S 75 7
20.10.2019 07:00:00 10,1 4,3 7,7 6,9 7,8 9,3 27 15 32 17 S 71 0
20.10.2019 06:00:00 9,5 5,1 8,4 6,9 7,8 9,4 27 14 42 23 SSW 75 0
20.10.2019 05:00:00 8,8 5,3 8,0 6,7 7,9 9,4 35 19 44 24 SSW 58 0
20.10.2019 04:00:00 8,5 5,1 7,3 6,7 7,9 9,4 36 19 42 23 SSW 72 0
20.10.2019 03:00:00 8,6 5,0 7,9 6,8 7,9 9,4 37 20 42 23 SW 75 0
20.10.2019 02:00:00 8,9 4,9 8,1 6,8 7,9 9,4 38 21 47 26 SW 75 0
20.10.2019 01:00:00 8,6 4,8 7,9 6,6 8,0 9,4 41 22 51 28 SSW 75 0
20.10.2019 00:00:00 7,8 5,0 7,0 6,5 8,0 9,4 46 25 54 29 SSW 75 0
19.10.2019 23:00:00 7,2 5,2 6,5 6,4 8,1 9,4 43 23 53 28 S 75 0
19.10.2019 22:00:00 6,6 4,9 5,5 6,5 8,2 9,4 39 21 53 29 S 69 0
19.10.2019 21:00:00 6,7 4,6 5,7 6,7 8,2 9,4 41 22 50 27 SSW 75 0
19.10.2019 20:00:00 6,5 4,9 6,0 6,8 8,3 9,4 44 24 53 29 SSW 75 0
19.10.2019 19:00:00 6,6 4,3 5,6 7,1 8,3 9,4 39 21 46 25 SSW 68 0
19.10.2019 18:00:00 6,7 4,7 6,0 7,6 8,3 9,4 33 18 47 25 S 72 3
19.10.2019 17:00:00 6,7 4,7 6,4 8,1 8,2 9,4 40 22 50 27 SSW 75 1
19.10.2019 16:00:00 6,8 5,4 7,0 8,2 8,2 9,4 37 20 50 27 SW 63 0
19.10.2019 15:00:00 6,5 5,9 7,1 7,9 8,1 9,4 35 19 50 27 SW 32 0
19.10.2019 14:00:00 6,5 6,0 7,0 7,9 8,1 9,4 36 19 51 28 SW 3,0 0
19.10.2019 13:00:00 6,3 5,8 6,7 7,8 8,1 9,4 38 21 49 26 SW 6 0
19.10.2019 12:00:00 6,6 5,2 7,1 7,8 8,0 9,4 35 19 44 24 SW 75 2
19.10.2019 11:00:00 6,4 5,3 7,1 7,5 8,0 9,4 34 18 41 22 SSW 75 4
19.10.2019 10:00:00 5,8 5,2 6,1 7,0 8,1 9,4 35 19 48 26 SSW 10 0
19.10.2019 09:00:00 6,0 5,3 6,0 6,8 8,1 9,4 38 20 47 26 SSW 24 0
19.10.2019 08:00:00 6,2 5,5 6,0 6,8 8,1 9,4 37 20 53 29 SW 28 0
19.10.2019 07:00:00 6,4 6,0 6,3 6,8 8,2 9,4 40 22 58 31 SW 4,9 0
19.10.2019 06:00:00 6,2 5,8 6,2 6,7 8,2 9,4 48 26 62 34 SW 0,6 0
19.10.2019 05:00:00 6,3 5,8 6,2 6,7 8,3 9,4 46 25 62 34 SSW 11 0
19.10.2019 04:00:00 6,0 5,6 6,0 6,6 8,4 9,4 45 25 58 31 SW 0,5 0
19.10.2019 03:00:00 5,5 5,1 5,6 6,4 8,5 9,4 34 18 46 25 WSW 0,2 0
19.10.2019 02:00:00 5,5 5,1 5,5 6,4 8,6 9,4 36 19 45 25 WSW 0,2 0
19.10.2019 01:00:00 5,1 4,6 4,7 6,5 8,7 9,4 37 20 50 27 WSW 0,6 0
19.10.2019 00:00:00 5,7 5,3 5,4 6,7 8,8 9,4 41 22 55 30 WSW 0,2 0
18.10.2019 23:00:00 5,7 5,0 4,9 7,1 8,9 9,4 42 23 61 33 W 7 0
18.10.2019 22:00:00 6,5 5,5 5,6 7,5 9,0 9,4 45 24 60 32 WSW 54 0
18.10.2019 21:00:00 6,8 5,7 5,8 8,1 9,0 9,4 44 24 54 29 W 72 0
18.10.2019 20:00:00 7,3 6,4 7,0 8,6 9,0 9,4 42 23 57 31 WSW 44 0
18.10.2019 19:00:00 8,1 7,2 7,8 9,1 9,0 9,4 48 26 71 39 W 29 0
18.10.2019 18:00:00 9,7 6,8 9,0 9,5 8,9 9,4 35 19 51 28 SSW 61 3
18.10.2019 17:00:00 10,2 6,9 10,7 9,9 8,9 9,4 32 17 45 24 S 54 2
18.10.2019 16:00:00 10,0 6,9 10,2 10,2 8,7 9,4 34 18 57 31 SSW 48 5
18.10.2019 15:00:00 10,3 7,5 10,9 10,3 8,6 9,4 36 20 61 33 SW 60 15
18.10.2019 14:00:00 10,0 7,4 10,6 10,0 8,5 9,4 37 20 53 29 SSW 45 6
18.10.2019 13:00:00 9,2 8,2 9,6 9,6 8,4 9,4 36 19 54 29 SW 34 1
18.10.2019 12:00:00 8,8 8,2 9,4 9,4 8,3 9,4 36 19 55 30 SW 16 9
18.10.2019 11:00:00 8,6 8,1 9,6 9,1 8,2 9,4 40 21 50 27 SW 0,4 44
18.10.2019 10:00:00 8,1 7,7 8,5 8,6 8,2 9,4 40 21 49 26 SW 0,3 9
18.10.2019 09:00:00 7,9 7,5 8,4 8,0 8,2 9,4 36 20 49 27 SW 0,2 3
18.10.2019 08:00:00 7,7 7,3 7,8 7,7 8,2 9,4 35 19 44 24 WSW 0,1 0
18.10.2019 07:00:00 7,8 7,4 7,8 7,7 8,1 9,4 32 17 45 25 WSW 0,1 0
18.10.2019 06:00:00 7,8 7,4 7,8 7,6 8,1 9,4 37 20 54 29 WSW 0,1 0
18.10.2019 05:00:00 7,6 7,2 7,6 7,5 8,1 9,4 39 21 59 32 WSW 0,2 0
18.10.2019 04:00:00 7,6 7,2 7,6 7,3 8,2 9,4 39 21 61 33 SW 0,1 0
18.10.2019 03:00:00 7,9 6,9 7,6 7,1 8,2 9,4 46 25 61 33 SW 29 0
18.10.2019 02:00:00 8,1 5,4 7,3 7,0 8,2 9,4 45 24 59 32 SW 48 0
18.10.2019 01:00:00 9,0 3,7 8,2 7,0 8,3 9,4 40 22 51 28 SW 75 0
18.10.2019 00:00:00 8,8 3,8 7,9 7,0 8,3 9,4 37 20 54 29 SSW 75 0
17.10.2019 23:00:00 8,6 5,0 7,9 7,1 8,3 9,4 47 26 55 30 SSW 61 0
17.10.2019 22:00:00 8,6 5,2 7,8 7,0 8,4 9,4 44 24 53 29 SSW 74 0
17.10.2019 21:00:00 8,4 5,5 7,1 7,1 8,5 9,4 40 21 46 25 SSW 61 0
17.10.2019 20:00:00 8,5 5,2 7,4 7,2 8,5 9,4 41 22 47 25 SW 67 0
17.10.2019 19:00:00 8,0 5,5 6,8 7,5 8,5 9,4 39 21 45 24 SSW 75 0
17.10.2019 18:00:00 7,8 5,4 7,0 8,2 8,4 9,4 37 20 49 26 SSW 58 17
17.10.2019 17:00:00 8,2 6,2 8,4 8,8 8,3 9,4 41 22 48 26 SW 50 5
17.10.2019 16:00:00 8,8 6,3 9,2 9,1 8,2 9,4 35 19 44 24 SW 67 0
17.10.2019 15:00:00 8,9 6,3 9,5 8,9 8,0 9,4 35 19 52 28 WSW 73 5
17.10.2019 14:00:00 8,8 5,0 9,6 8,6 7,9 9,4 42 23 61 33 SW 72 11
17.10.2019 13:00:00 8,6 4,2 9,3 8,1 7,9 9,4 42 23 58 31 SW 63 5
17.10.2019 12:00:00 8,4 3,1 9,1 7,4 7,8 9,4 39 21 52 28 SW 75 14
17.10.2019 11:00:00 7,1 3,0 7,9 6,3 7,9 9,4 43 23 55 30 SW 75 2
17.10.2019 10:00:00 6,7 3,0 6,1 5,8 7,9 9,4 47 25 60 33 SW 59 0
17.10.2019 09:00:00 6,3 2,3 6,0 5,5 8,0 9,4 51 27 60 32 SW 71 0
17.10.2019 08:00:00 5,7 2,2 5,3 5,3 8,1 9,4 48 26 58 32 SW 73 2
17.10.2019 07:00:00 5,4 2,3 4,9 5,3 8,2 9,4 46 25 57 31 SW 70 0
17.10.2019 06:00:00 5,1 2,2 4,3 5,3 8,4 9,4 48 26 60 33 SW 71 0
17.10.2019 05:00:00 5,8 2,4 5,0 5,4 8,5 9,4 51 27 65 35 WSW 71 0

tt = temperature
td = dewpoint
tt 5cm = temperature 5cm
tt -5cm = temperature -5cm
tt -20cm = temperature -20cm
tt -100cm = temperature -100cm
ff = wind speed
fx = gusts
dd = wind direction
vv = visibility
sd = sunshine duration

Next stations